Station SHXA2 - Sitka Harbor, AK Image indicating link to RSS feed of recent meteorological observations for station SHXA2


Conditions at SHXA2 as of
(1:32 am AKST)
1032 GMT on 12/01/2023:
     

Click on the graph icon in the table below to see a time series plot of the last five days of that observation.

5-day plot - Wind Direction Wind Direction (WDIR):SSE ( 160 deg true )
5-day plot - Wind Speed Wind Speed (WSPD): 7 kts
5-day plot - Wind Gust Wind Gust (GST): 14 kts
5-day plot - Air Temperature Air Temperature (ATMP): 43.2 °F
5-day plot - Dew Point Dew Point (DEWP): 34.9 °F
5-day plot - Wind Chill Wind Chill (CHILL): 38.5 °F
5-day plot - Wind Speed at 10 Meters Wind Speed at 10 meters (WSPD10M): 8 kts
5-day plot - Wind Speed at 20 Meters Wind Speed at 20 meters (WSPD20M): 8 kts
5-day plot -  Wind Speed, Wind Gust and Atmospheric Pressure Combined plot of Wind Speed, Gust, and Air Pressure
Previous observations
TIME
(AKST)
5-day plot - Wind Direction
WDIR
 
5-day plot - Wind Speed
WSPD
kts
5-day plot - Wind Gust
GST
kts
5-day plot - Wave Height
WVHT
ft
5-day plot - Dominant Wave Period
DPD
sec
5-day plot - Average Wave Period
APD
sec
5-day plot - Mean Wave Direction
MWD
 
5-day plot - Atmospheric Pressure
PRES
in
5-day plot - Pressure Tendency
PTDY
in
5-day plot - Air Temperature
ATMP
°F
5-day plot - Water Temperature
WTMP
°F
5-day plot - Dew Point
DEWP
°F
5-day plot - Salinity
SAL
psu
5-day plot - Visibility
VIS
nmi
5-day plot - Tide (above MLLW)
TIDE
ft
2023-12-01 01:23 amSSE 6 12------ 43.2- 35.1---
2023-12-01 01:13 amSSE 7 15------ 43.2- 35.1---
2023-12-01 01:03 amSSE 6 13------ 43.2- 34.9---
2023-12-01 12:53 amSSE 6 12------ 43.3- 34.7---
2023-12-01 12:43 amSSE 7 13------ 43.2- 34.9---
2023-12-01 12:33 amSSE 6 12------ 43.0- 35.2---
2023-12-01 12:23 amSSE 5 11------ 43.0- 34.9---
2023-12-01 12:13 amSSE 6 14------ 42.8- 34.9---
2023-12-01 12:03 amSSE 8 12------ 42.8- 35.1---
2023-11-30 11:53 pmSSE 7 12------ 42.6- 34.9---
2023-11-30 11:43 pmSSE 5 11------ 42.4- 35.1---
2023-11-30 11:33 pmSSE 5 10------ 42.1- 35.1---
2023-11-30 11:23 pmSSE 4 9------ 41.7- 35.2---
2023-11-30 11:15 pm S 4 7------ 41.5- 35.4---
2023-11-30 11:03 pmSSE 4 8------ 40.8- 35.1---
2023-11-30 10:53 pmSSE 4 8------ 39.9- 34.7---
2023-11-30 10:43 pmSSE 4 9------ 39.0- 34.5---
2023-11-30 10:33 pmESE 3 6------ 38.3- 34.3---
2023-11-30 10:23 pmESE 3 7------ 38.8- 34.3---
2023-11-30 10:13 pm SE 3 7------ 38.8- 34.3---
2023-11-30 10:03 pmESE 3 7------ 38.5- 34.0---
2023-11-30 09:53 pm SE 3 6------ 39.0- 34.2---
2023-11-30 09:43 pm SE 3 7------ 39.2- 34.3---
2023-11-30 09:33 pmSSE 3 7------ 39.9- 34.5---
2023-11-30 09:23 pmSSE 4 6------ 39.2- 34.3---
2023-11-30 09:12 pm SE 3 7------ 38.5- 34.3---
2023-11-30 09:03 pmESE 3 5------ 36.9- 34.3---
2023-11-30 08:53 pmESE 3 6------ 36.7- 34.3---
2023-11-30 08:43 pmESE 2 4------ 36.0- 34.2---
2023-11-30 08:33 pmENE 2 4------ 36.0- 33.6---
2023-11-30 08:23 pm N 2 4------ 36.9- 34.0---
2023-11-30 08:13 pmSSE 2 4------ 37.9- 34.5---
2023-11-30 08:03 pmSSE 3 6------ 37.9- 34.3---
2023-11-30 07:53 pm SE 4 7------ 37.8- 34.3---
2023-11-30 07:43 pm SE 3 6------ 37.2- 34.3---
2023-11-30 07:33 pmESE 2 5------ 35.8- 34.3---
2023-11-30 07:23 pmESE 2 5------ 34.7- 33.6---
2023-11-30 07:13 pm E 2 5------ 34.7- 33.4---
2023-11-30 07:03 pm E 2 4------ 35.1- 33.8---
2023-11-30 06:53 pm- 0 2------ 35.1- 33.6---
2023-11-30 06:43 pm E 3 5------ 35.2- 33.6---
2023-11-30 06:33 pm E 1 3------ 36.0- 34.2---
2023-11-30 06:23 pm SE 1 2------ 36.0- 34.2---
2023-11-30 06:13 pm NE 2 5------ 36.0- 34.0---
2023-11-30 06:03 pmESE 3 6------ 36.5- 34.3---
2023-11-30 05:53 pm SE 4 7------ 36.5- 34.3---
2023-11-30 05:43 pmESE 4 8------ 36.5- 34.5---
2023-11-30 05:33 pm SE 4 8------ 36.5- 34.7---
2023-11-30 05:23 pmESE 3 7------ 36.5- 34.7---
2023-11-30 05:12 pmESE 4 7------ 37.2- 35.1---
2023-11-30 05:03 pmESE 4 9------ 37.2- 35.4---
2023-11-30 04:53 pm SE 3 8------ 37.2- 35.4---
2023-11-30 04:43 pm SE 2 5------ 37.6- 35.4---
2023-11-30 04:32 pmESE 3 5------ 37.9- 35.8---
2023-11-30 04:23 pmESE 3 5------ 38.1- 35.8---
2023-11-30 04:13 pmESE 3 7------ 38.1- 36.1---
2023-11-30 04:03 pm E 3 7------ 38.3- 36.5---
2023-11-30 03:53 pm E 3 6------ 38.7- 36.9---
2023-11-30 03:43 pm E 3 5------ 39.4- 37.6---
2023-11-30 03:33 pmESE 2 4------ 40.5- 38.1---
2023-11-30 03:23 pm SE 2 3------ 41.0- 38.3---
2023-11-30 03:13 pmSSE 2 3------ 41.4- 38.8---
2023-11-30 02:53 pmESE 2 4------ 42.4- 39.4---
2023-11-30 02:13 pm SE 2 3------ 44.1- 40.1---
2023-11-30 02:03 pmESE 2 4------ 43.7- 39.7---
2023-11-30 01:53 pmESE 2 5------ 43.7- 39.7---
2023-11-30 01:43 pmESE 2 4------ 43.3- 39.6---
2023-11-30 01:33 pmESE 2 4------ 43.2- 39.7---
2023-11-30 01:23 pm SE 2 3------ 43.2- 39.6---
2023-11-30 01:13 pmESE 2 3------ 43.2- 39.9---
2023-11-30 01:03 pmSSE 1 3------ 42.8- 39.7---
2023-11-30 12:53 pmESE 1 2------ 42.4- 39.9---
2023-11-30 12:43 pmESE 2 3------ 42.4- 39.9---
2023-11-30 12:33 pmESE 2 3------ 42.3- 39.4---
2023-11-30 12:23 pm SE 2 3------ 41.9- 38.7---
2023-11-30 12:13 pm SE 2 3------ 41.5- 38.7---
2023-11-30 12:03 pmESE 2 3------ 41.4- 39.0---
2023-11-30 11:53 am E 2 4------ 41.2- 39.2---
2023-11-30 11:43 am E 3 5------ 41.0- 39.2---
2023-11-30 11:33 am E 2 4------ 41.0- 39.2---
2023-11-30 11:23 am- 0 2------ 41.0- 39.2---
2023-11-30 11:13 am SE 1 2------ 40.8- 39.0---
2023-11-30 11:03 am SE 1 2------ 40.6- 39.0---
2023-11-30 10:53 am SE 2 3------ 40.5- 39.0---
2023-11-30 10:43 am E 2 4------ 40.3- 39.0---
2023-11-30 10:23 am E 2 4------ 39.9- 38.5---
2023-11-30 10:13 amESE 2 5------ 39.7- 38.3---
2023-11-30 10:03 am SE 2 4------ 39.6- 38.3---
2023-11-30 09:53 am SE 2 4------ 39.6- 38.3---
2023-11-30 09:43 am SE 2 3------ 39.6- 38.5---
2023-11-30 09:33 am S 1 3------ 39.7- 38.7---
2023-11-30 09:23 amESE 2 3------ 39.7- 38.5---
2023-11-30 09:13 amNNE 2 3------ 39.7- 38.5---
2023-11-30 09:03 am N 4 7------ 39.4- 37.9---
2023-11-30 08:53 am N 5 8------ 39.4- 37.8---
2023-11-30 08:43 am N 5 9------ 39.4- 38.1---
2023-11-30 08:33 am N 7 11------ 39.6- 38.3---
2023-11-30 08:23 am N 6 10------ 39.6- 38.3---
2023-11-30 08:13 am N 7 10------ 39.7- 38.3---
2023-11-30 08:03 am N 4 8------ 40.1- 38.5---
2023-11-30 07:53 amNNW 2 4------ 40.3- 38.7---
2023-11-30 07:43 am- 0 2------ 40.1- 38.5---
2023-11-30 07:33 am E 2 4------ 40.3- 38.7---
2023-11-30 07:23 amNNE 2 3------ 40.6- 38.8---
2023-11-30 07:13 amNNE 2 3------ 40.6- 38.7---
2023-11-30 07:03 amNNE 2 2------ 40.6- 38.8---
2023-11-30 06:53 am E 2 3------ 40.8- 38.8---
2023-11-30 06:43 amENE 3 7------ 41.0- 38.8---
2023-11-30 06:33 am SE 2 4------ 41.4- 39.6---
2023-11-30 06:23 am N 3 6------ 41.5- 39.7---
2023-11-30 06:13 am NW 4 7------ 41.7- 39.4---
2023-11-30 06:03 am N 2 4------ 41.2- 38.1---
2023-11-30 05:53 amESE 2 4------ 40.8- 37.8---
2023-11-30 05:43 amESE 3 5------ 40.6- 37.6---
2023-11-30 05:33 am SE 3 7------ 40.8- 37.9---
2023-11-30 05:23 am SE 3 7------ 41.0- 38.3---
2023-11-30 05:13 amESE 2 5------ 41.2- 38.3---
2023-11-30 05:03 am SE 3 6------ 41.5- 38.3---
2023-11-30 04:53 am E 2 3------ 41.5- 38.7---
2023-11-30 04:43 am E 1 3------ 41.9- 38.7---
2023-11-30 04:33 am S 3 5------ 42.1- 38.8---
2023-11-30 04:23 amSSW 2 5------ 42.1- 39.2---
2023-11-30 04:13 am S 3 5------ 41.7- 38.7---
2023-11-30 04:03 am SW 1 5------ 41.4- 38.8---
2023-11-30 03:53 am NE 2 3------ 41.4- 38.7---
2023-11-30 03:43 am E 3 4------ 41.4- 38.5---
2023-11-30 03:23 amENE 2 3------ 42.3- 38.3---
2023-11-30 03:13 am E 3 6------ 42.6- 37.9---
2023-11-30 03:03 am SE 3 6------ 42.8- 37.8---
2023-11-30 02:53 am SE 3 8------ 42.6- 37.9---
2023-11-30 02:43 amESE 3 7------ 42.6- 38.1---
2023-11-30 02:33 amSSE 4 9------ 43.0- 38.1---
2023-11-30 02:23 am SE 3 8------ 43.2- 38.1---
2023-11-30 02:13 am SE 3 6------ 43.5- 37.9---
2023-11-30 02:03 am SE 3 7------ 43.5- 37.6---
2023-11-30 01:53 amSSE 4 7------ 43.9- 37.9---
2023-11-30 01:43 amESE 5 10------ 44.1- 37.6---
2023-11-30 01:33 am SE 4 11------ 44.2- 37.4---
2023-11-30 01:23 amSSE 4 7------ 44.4- 37.4---
2023-11-30 01:13 am SE 4 8------ 44.1- 37.2---
2023-11-30 01:03 am SE 4 8------ 43.7- 37.6---
2023-11-30 12:53 am SE 5 10------ 43.7- 37.8---